Morrow, AR (72749)

8:26 AM CDT on July 31, 2015 (GMT -0500)
KARPRAIR2 | | Change Station
CLOSE
Current Station
Personal Weather Station
Location: Prairie Grove, AR
Elevation: 1385 ft
Nearby Weather Stations

Elev 1385 ft 35.93 °N, 94.33 °W | Updated 1 minute ago

Partly Cloudy
Partly Cloudy
69.4 °F
Feels Like 69.4 °F
N
0.0
Wind Variable Wind from SSW
Gusts 1.0 mph

Today
High -- | Low -- °F
--% Chance of Precip.
Yesterday
High -- | Low -- °F
Precip. -- in
6:24 AM 8:23 PM
Full, 100% visible
Pressure 30.16 in
Visibility 10.0 miles
Clouds Mostly Cloudy 10000 ft
Dew Point 66 °F
Humidity 90%
Rainfall 0.00 in
Snow Depth Not available.
UV 1 out of 12
Pollen 4.70 out of 12
Air Quality Not available.
Flu Activity Not available.
METAR KFYV 311253Z 00000KT 10SM BKN100 19/19 A3019 RMK AO2 SLP211 T01940189

More Conditions Fewer Conditions

Pressure 30.16 in
Visibility 10.0 miles
Clouds Mostly Cloudy 10000 ft
Dew Point 66 °F
Humidity 90%
Rainfall 0.00 in
Snow Depth Not available.
UV 1 out of 12
Pollen 4.70 out of 12
Air Quality Not available.
Flu Activity Not available.
METAR KFYV 311253Z 00000KT 10SM BKN100 19/19 A3019 RMK AO2 SLP211 T01940189

More Conditions Fewer Conditions

Nowcast | as of 7:23 am CDT on July 31, 2015

At 7:23 am...Doppler radars detected scattered showers across central Oklahoma...with the eastern edge of this activity catching portions of creek and Okfuskee counties. Additional isolated showers were indicated over far northeast Oklahoma and the far northwest corner of Arkansas. All of this activity was moving off to the southeast. Through 9:30 am...isolated showers will be possible across eastern Oklahoma and the northwest corner of Arkansas...mainly north of a line from Scipio Oklahoma to Huntsville Arkansas. Light to occasional moderate showers will be common...with hourly rainfall rates ranging from one tenth to one quarter inch. Some isolated locally higher amounts to one half inch are possible in heavier downpours...along with brief gusty winds.

×

10-Day Weather Forecast

×

Almanac

Astronomy

Jul. 31, 2015 Rise Set
Actual Time
Civil Twilight
Nautical Twilight
Astronomical Twilight
Moon
Length of Visible Light
Length of Day
Tomorrow will be .
, % of the Moon is Illuminated

Today's Extremes

State Highs State Lows

Community

WunderPhotos

Upload Photos

1,842,653 photos uploaded!

WunderBlogs® & News

Nearby

Air Quality

  Air Quality AQ Index Pollutant
Not available.

Snow Depth

Station Depth Elevation

Earthquake Activity

City Distance Mag. Time & Date
Minimum magnitude displayed is 2.5.

Coastal Water Temperatures

Place Temperature

Stations

Nearby Weather Stations

Station Location Temp. Windchill Dew Point Humidity Wind Precip. Elev Updated Type